Time;durP1;ratioP1;P1;durP2;ratioP2;P2;SDS_P1;SDS_P2;PMS_P1;PMS_P2;Temp;Humidity;BMP_temperature;BMP_pressure;BME280_temperature;BME280_humidity;BME280_pressure;Samples;Min_cycle;Max_cycle;Signal;HPM_P1;HPM_P2
2021/01/14 00:01:43;;;;;;;7.50;6.43;;;3.80;89.40;;;;;;5003521;28;20568;-81
2021/01/14 00:04:09;;;;;;;19.60;9.50;;;3.80;89.40;;;;;;5002648;28;20179;-81
2021/01/14 00:06:35;;;;;;;11.13;6.50;;;3.80;89.40;;;;;;5002926;28;20175;-81
2021/01/14 00:09:00;;;;;;;12.80;7.20;;;3.80;89.40;;;;;;5003042;28;20191;-81
2021/01/14 00:11:26;;;;;;;22.10;7.40;;;3.80;89.50;;;;;;5001610;28;20164;-81
2021/01/14 00:13:51;;;;;;;12.90;7.80;;;3.80;89.50;;;;;;5002929;28;20164;-81
2021/01/14 00:16:17;;;;;;;19.27;6.50;;;3.80;89.60;;;;;;5003804;28;20179;-83
2021/01/14 00:18:43;;;;;;;11.27;6.80;;;3.80;89.60;;;;;;5019408;28;20704;-81
2021/01/14 00:21:08;;;;;;;19.17;6.83;;;3.80;89.50;;;;;;5002248;28;20181;-80
2021/01/14 00:23:34;;;;;;;14.27;7.87;;;3.70;89.40;;;;;;5006254;28;20164;-80
2021/01/14 00:26:00;;;;;;;13.70;7.17;;;3.70;89.60;;;;;;5000597;28;20637;-80
2021/01/14 00:28:25;;;;;;;18.43;7.30;;;3.70;89.60;;;;;;5001427;28;20172;-81
2021/01/14 00:30:51;;;;;;;20.77;8.13;;;3.70;89.60;;;;;;5001994;28;20209;-81
2021/01/14 00:33:16;;;;;;;15.10;7.00;;;3.70;89.80;;;;;;5001710;28;20168;-82
2021/01/14 00:35:42;;;;;;;13.40;7.10;;;3.70;89.80;;;;;;5007813;28;20194;-82
2021/01/14 00:38:08;;;;;;;17.43;8.33;;;3.70;89.80;;;;;;5017223;28;20256;-81
2021/01/14 00:40:34;;;;;;;14.40;7.00;;;3.70;89.70;;;;;;5032724;28;20227;-81
2021/01/14 00:43:07;;;;;;;15.50;6.00;;;3.70;89.40;;;;;;5001710;28;20242;-81
2021/01/14 00:45:33;;;;;;;15.37;6.07;;;3.70;89.30;;;;;;4999096;28;20971;-80
2021/01/14 00:48:00;;;;;;;14.00;6.03;;;3.70;89.00;;;;;;4999612;28;20501;-81
2021/01/14 00:50:26;;;;;;;10.27;5.47;;;3.70;88.60;;;;;;5001475;28;20431;-81
2021/01/14 00:52:52;;;;;;;12.97;4.90;;;3.70;88.30;;;;;;5002291;28;20427;-81
2021/01/14 00:55:19;;;;;;;13.90;5.40;;;3.70;88.00;;;;;;5004375;28;20445;-82
2021/01/14 00:57:45;;;;;;;15.80;4.60;;;3.70;87.60;;;;;;5000366;28;20443;-81
2021/01/14 01:00:14;;;;;;;13.17;5.03;;;3.80;87.30;;;;;;5002155;28;20449;-81
2021/01/14 01:02:44;;;;;;;15.57;5.87;;;3.80;87.10;;;;;;5001653;28;20438;-81
2021/01/14 01:05:11;;;;;;;8.07;5.20;;;3.80;87.00;;;;;;5001552;28;20936;-82
2021/01/14 01:07:38;;;;;;;13.10;6.27;;;3.80;86.90;;;;;;5018462;28;20415;-82
2021/01/14 01:10:06;;;;;;;16.70;6.97;;;3.80;86.70;;;;;;5002285;28;20458;-81
2021/01/14 01:12:31;;;;;;;11.80;5.20;;;3.80;86.50;;;;;;5002104;28;20430;-81
2021/01/14 01:14:57;;;;;;;11.93;5.53;;;3.80;86.20;;;;;;5010328;28;20435;-81
2021/01/14 01:17:23;;;;;;;12.67;4.83;;;3.80;85.90;;;;;;5006277;28;20172;-82
2021/01/14 01:19:48;;;;;;;8.63;3.50;;;3.80;85.30;;;;;;5001986;28;20195;-81
2021/01/14 01:22:18;;;;;;;4.80;2.70;;;3.70;82.60;;;;;;5004872;28;20192;-81
2021/01/14 01:24:44;;;;;;;7.13;1.53;;;3.70;79.30;;;;;;5010533;28;20229;-80
2021/01/14 01:27:10;;;;;;;10.20;2.50;;;3.60;72.80;;;;;;5006745;28;20419;-80
2021/01/14 01:29:35;;;;;;;9.80;2.80;;;3.60;72.70;;;;;;5004408;28;20200;-81
2021/01/14 01:32:01;;;;;;;7.03;1.40;;;3.60;70.90;;;;;;5005342;28;20210;-81
2021/01/14 01:34:27;;;;;;;9.20;2.20;;;3.60;69.60;;;;;;5009466;28;20176;-81
2021/01/14 01:36:52;;;;;;;2.10;0.77;;;3.60;67.70;;;;;;5010725;28;20245;-81
2021/01/14 01:39:18;;;;;;;9.90;1.60;;;3.60;67.50;;;;;;5004683;28;20267;-80
2021/01/14 01:41:45;;;;;;;5.23;1.37;;;3.50;65.50;;;;;;5008550;28;20247;-80
2021/01/14 01:44:11;;;;;;;5.67;1.73;;;3.50;65.60;;;;;;5010262;28;20417;-80
2021/01/14 01:46:37;;;;;;;5.53;1.40;;;3.50;65.60;;;;;;5020610;28;20411;-80
2021/01/14 01:49:03;;;;;;;2.87;1.30;;;3.50;65.80;;;;;;5004331;28;20790;-80
2021/01/14 01:51:40;;;;;;;8.87;3.03;;;3.50;65.80;;;;;;5005032;28;20175;-80
2021/01/14 01:54:06;;;;;;;4.57;1.50;;;3.50;65.90;;;;;;5005971;28;20187;-80
2021/01/14 01:56:33;;;;;;;7.33;1.30;;;3.50;66.00;;;;;;5000808;28;20411;-80
2021/01/14 01:58:58;;;;;;;10.53;1.40;;;3.50;66.20;;;;;;5000033;28;20459;-80
2021/01/14 02:01:26;;;;;;;5.50;1.00;;;3.50;65.90;;;;;;5001461;28;20562;-79
2021/01/14 02:03:52;;;;;;;8.03;2.43;;;3.50;66.30;;;;;;5003968;28;20168;-80
2021/01/14 02:06:19;;;;;;;11.50;2.00;;;3.50;66.60;;;;;;5019750;28;20434;-80
2021/01/14 02:08:48;;;;;;;3.90;1.40;;;3.50;67.10;;;;;;5001621;28;20414;-80
2021/01/14 02:11:38;;;;;;;2.30;1.03;;;3.50;67.20;;;;;;5017341;28;20422;-80
2021/01/14 02:14:15;;;;;;;3.20;1.50;;;3.50;67.20;;;;;;5005065;28;20784;-80
2021/01/14 02:16:46;;;;;;;6.23;1.50;;;3.40;67.40;;;;;;5020657;28;20422;-79
2021/01/14 02:19:23;;;;;;;5.90;1.60;;;3.40;67.60;;;;;;5004136;28;20511;-81
2021/01/14 02:21:54;;;;;;;11.77;1.93;;;3.40;67.90;;;;;;5002647;28;20449;-80
2021/01/14 02:24:42;;;;;;;3.33;1.00;;;3.30;67.90;;;;;;5003199;28;20426;-80
2021/01/14 02:27:09;;;;;;;5.43;1.00;;;3.30;67.90;;;;;;4989893;28;20435;-80
2021/01/14 02:29:36;;;;;;;10.77;1.40;;;3.20;67.70;;;;;;5003081;28;20433;-80
2021/01/14 02:32:02;;;;;;;8.23;1.57;;;3.20;67.20;;;;;;5019012;28;20410;-80
2021/01/14 02:34:28;;;;;;;4.80;1.27;;;3.20;67.10;;;;;;5003000;28;20790;-80
2021/01/14 02:36:54;;;;;;;10.13;1.33;;;3.10;66.60;;;;;;5003353;28;20434;-80
2021/01/14 02:39:20;;;;;;;5.43;1.20;;;3.10;66.50;;;;;;5018618;28;20200;-79
2021/01/14 02:41:45;;;;;;;2.83;0.90;;;3.10;66.20;;;;;;5001902;28;20465;-80
2021/01/14 02:44:11;;;;;;;9.20;1.80;;;3.10;65.80;;;;;;5002157;28;20168;-80
2021/01/14 02:46:37;;;;;;;11.97;1.37;;;3.10;65.90;;;;;;5001706;28;20163;-80
2021/01/14 02:49:08;;;;;;;5.30;2.83;;;3.10;65.50;;;;;;5003326;28;20207;-80
2021/01/14 02:51:50;;;;;;;4.27;1.63;;;3.10;65.30;;;;;;5001737;28;20671;-80
2021/01/14 02:54:16;;;;;;;8.90;1.20;;;3.00;64.90;;;;;;5002576;28;20494;-80
2021/01/14 02:56:46;;;;;;;4.20;1.30;;;3.00;64.90;;;;;;5017399;28;20430;-79
2021/01/14 02:59:12;;;;;;;4.17;1.17;;;3.00;65.00;;;;;;5002829;28;20285;-80
2021/01/14 03:01:38;;;;;;;6.50;1.47;;;3.00;64.90;;;;;;5019422;28;20462;-79
2021/01/14 03:04:03;;;;;;;2.30;1.30;;;3.00;64.40;;;;;;5003561;28;20394;-80
2021/01/14 03:06:29;;;;;;;13.23;1.73;;;3.00;64.50;;;;;;5008041;28;20192;-80
2021/01/14 03:08:55;;;;;;;6.13;0.90;;;3.00;64.40;;;;;;5010456;28;20191;-80
2021/01/14 03:11:27;;;;;;;5.37;1.43;;;3.00;64.20;;;;;;5005435;28;20203;-80
2021/01/14 03:13:53;;;;;;;3.50;0.90;;;3.00;64.30;;;;;;5003885;28;20172;-79
2021/01/14 03:16:19;;;;;;;2.50;1.00;;;3.00;64.50;;;;;;5020279;28;20450;-80
2021/01/14 03:18:44;;;;;;;5.60;1.40;;;3.00;64.70;;;;;;5004464;28;20411;-79
2021/01/14 03:21:10;;;;;;;5.47;1.90;;;3.00;64.80;;;;;;5006134;28;20171;-80
2021/01/14 03:23:36;;;;;;;7.40;1.23;;;3.00;65.80;;;;;;5005575;28;20230;-80
2021/01/14 03:26:01;;;;;;;6.83;1.80;;;3.00;65.20;;;;;;5002836;28;20168;-80
2021/01/14 03:28:27;;;;;;;10.80;1.43;;;3.00;65.30;;;;;;5009043;28;20175;-80
2021/01/14 03:30:53;;;;;;;13.70;1.80;;;3.00;65.40;;;;;;5009869;28;20192;-80
2021/01/14 03:33:19;;;;;;;3.67;1.20;;;2.90;65.40;;;;;;5010883;28;20176;-80
2021/01/14 03:35:45;;;;;;;3.70;2.00;;;3.00;65.70;;;;;;5005352;28;20517;-80
2021/01/14 03:38:11;;;;;;;6.57;1.57;;;3.00;65.80;;;;;;5003095;28;20433;-80
2021/01/14 03:40:36;;;;;;;5.90;1.43;;;2.90;66.70;;;;;;5004139;28;20183;-80
2021/01/14 03:43:02;;;;;;;4.83;1.37;;;2.90;65.90;;;;;;5008140;28;20202;-79
2021/01/14 03:45:28;;;;;;;3.57;1.63;;;2.90;66.00;;;;;;5001414;28;20186;-79
2021/01/14 03:47:53;;;;;;;4.17;1.13;;;2.90;66.10;;;;;;5002128;28;20419;-79
2021/01/14 03:50:19;;;;;;;5.77;1.40;;;2.90;66.20;;;;;;4999591;28;20278;-80
2021/01/14 03:52:45;;;;;;;8.33;2.50;;;2.90;66.10;;;;;;5001542;28;20168;-80
2021/01/14 03:55:10;;;;;;;12.70;1.93;;;2.90;66.10;;;;;;5001559;28;20183;-79
2021/01/14 03:57:36;;;;;;;4.90;2.13;;;3.00;66.10;;;;;;5001480;28;20180;-80
2021/01/14 04:00:07;;;;;;;9.53;1.27;;;2.90;66.10;;;;;;5004137;28;20450;-80
2021/01/14 04:02:37;;;;;;;4.87;1.53;;;2.90;66.20;;;;;;5000695;28;20223;-79
2021/01/14 04:05:03;;;;;;;9.33;1.70;;;2.90;66.10;;;;;;5005114;28;20403;-80
2021/01/14 04:07:29;;;;;;;9.17;1.70;;;2.90;66.20;;;;;;5009478;28;20536;-79
2021/01/14 04:09:54;;;;;;;5.17;1.70;;;2.90;66.20;;;;;;5007243;28;20443;-80
2021/01/14 04:12:27;;;;;;;6.37;2.00;;;2.90;66.30;;;;;;5004320;28;20156;-80
2021/01/14 04:14:54;;;;;;;5.47;1.70;;;2.90;66.50;;;;;;5006874;28;20172;-80
2021/01/14 04:17:20;;;;;;;16.47;1.63;;;2.90;66.60;;;;;;5010116;28;20403;-80
2021/01/14 04:19:46;;;;;;;12.07;1.73;;;2.90;66.70;;;;;;5005870;28;20439;-79
2021/01/14 04:22:14;;;;;;;11.83;1.63;;;2.80;66.60;;;;;;5022085;28;20214;-78
2021/01/14 04:24:40;;;;;;;8.23;2.20;;;2.80;66.80;;;;;;5009016;28;20934;-79
2021/01/14 04:27:06;;;;;;;6.70;2.60;;;2.80;66.80;;;;;;5006556;28;20415;-79
2021/01/14 04:29:32;;;;;;;6.60;1.50;;;2.80;66.90;;;;;;5007305;28;20431;-81
2021/01/14 04:31:57;;;;;;;9.20;2.30;;;2.80;67.00;;;;;;5004668;28;20638;-80
2021/01/14 04:34:23;;;;;;;14.20;2.20;;;2.80;67.10;;;;;;5003354;28;20455;-79
2021/01/14 04:36:59;;;;;;;5.03;1.70;;;2.80;67.30;;;;;;5003575;28;20176;-80
2021/01/14 04:39:25;;;;;;;6.00;2.70;;;2.80;67.50;;;;;;5004500;28;20187;-79
2021/01/14 04:41:56;;;;;;;9.30;2.03;;;2.80;67.70;;;;;;5022339;28;20454;-80
2021/01/14 04:44:22;;;;;;;14.03;2.10;;;2.80;67.60;;;;;;5004148;28;20171;-79
2021/01/14 04:46:49;;;;;;;6.87;1.70;;;2.80;67.80;;;;;;5002599;28;20467;-80
2021/01/14 04:49:18;;;;;;;9.17;1.90;;;2.80;67.80;;;;;;5004900;28;20445;-79
2021/01/14 04:51:48;;;;;;;3.83;2.23;;;2.80;68.00;;;;;;5004044;28;20415;-80
2021/01/14 04:54:22;;;;;;;4.87;2.70;;;2.80;68.00;;;;;;5013460;28;20422;-80
2021/01/14 04:56:54;;;;;;;5.23;1.83;;;2.80;68.20;;;;;;5012163;28;20408;-80
2021/01/14 04:59:24;;;;;;;6.33;1.30;;;2.80;68.20;;;;;;5006156;28;20847;-79
2021/01/14 05:01:56;;;;;;;2.43;1.60;;;2.80;68.20;;;;;;5016286;28;20593;-80
2021/01/14 05:04:29;;;;;;;7.70;1.57;;;2.70;68.10;;;;;;5017870;28;20426;-80
2021/01/14 05:06:58;;;;;;;6.73;1.47;;;2.70;68.20;;;;;;5001324;28;20411;-80
2021/01/14 05:09:25;;;;;;;4.10;1.90;;;2.70;68.50;;;;;;5002040;28;20427;-80
2021/01/14 05:11:57;;;;;;;4.03;2.10;;;2.70;68.70;;;;;;5016655;28;20427;-81
2021/01/14 05:14:23;;;;;;;6.80;1.70;;;2.70;69.60;;;;;;5014476;28;20422;-80
2021/01/14 05:16:49;;;;;;;4.40;1.50;;;2.70;69.10;;;;;;5017791;28;20800;-80
2021/01/14 05:19:15;;;;;;;4.50;1.17;;;2.60;69.00;;;;;;4999890;28;20434;-79
2021/01/14 05:21:44;;;;;;;5.30;1.60;;;2.60;69.20;;;;;;4999634;28;20928;-80
2021/01/14 05:24:14;;;;;;;7.63;1.80;;;2.60;69.50;;;;;;5002127;28;20445;-80
2021/01/14 05:26:44;;;;;;;9.83;1.43;;;2.60;69.80;;;;;;5002239;28;20417;-79
2021/01/14 05:29:18;;;;;;;11.73;4.20;;;2.60;69.90;;;;;;5017380;28;20427;-80
2021/01/14 05:31:45;;;;;;;3.27;1.10;;;2.50;70.00;;;;;;5016125;28;20419;-80
2021/01/14 05:34:11;;;;;;;14.77;1.37;;;2.40;70.20;;;;;;5016930;28;20418;-80
2021/01/14 05:36:56;;;;;;;5.70;2.37;;;2.40;70.50;;;;;;4999925;28;20476;-79
2021/01/14 05:39:24;;;;;;;8.53;2.17;;;2.40;70.60;;;;;;5000094;28;20459;-79
2021/01/14 05:41:51;;;;;;;6.50;1.13;;;2.40;70.90;;;;;;5003103;28;20462;-79
2021/01/14 05:44:17;;;;;;;8.43;2.23;;;2.30;71.00;;;;;;5006076;28;20458;-80
2021/01/14 05:46:43;;;;;;;4.77;1.67;;;2.30;71.30;;;;;;5005346;28;20434;-80
2021/01/14 05:49:11;;;;;;;3.40;1.17;;;2.30;71.50;;;;;;5002026;28;20435;-79
2021/01/14 05:51:37;;;;;;;1.77;1.10;;;2.20;71.60;;;;;;5000083;28;20178;-80
2021/01/14 05:54:13;;;;;;;11.37;2.00;;;2.20;71.70;;;;;;5000644;28;20465;-79
2021/01/14 05:56:50;;;;;;;3.13;1.20;;;2.20;72.00;;;;;;4999873;28;20434;-80
2021/01/14 05:59:32;;;;;;;5.90;1.27;;;2.20;72.30;;;;;;5001238;28;20454;-80
2021/01/14 06:02:01;;;;;;;2.70;2.40;;;2.10;72.20;;;;;;5000912;28;20458;-81
2021/01/14 06:04:28;;;;;;;7.87;2.70;;;2.10;72.20;;;;;;5019133;28;20501;-80
2021/01/14 06:07:04;;;;;;;11.50;1.77;;;2.10;72.40;;;;;;5002991;28;20463;-80
2021/01/14 06:09:40;;;;;;;6.80;1.63;;;2.10;72.60;;;;;;5002263;28;20447;-80
2021/01/14 06:12:08;;;;;;;4.50;1.60;;;2.10;72.70;;;;;;5011594;28;20903;-79
2021/01/14 06:14:34;;;;;;;6.37;2.50;;;2.00;72.90;;;;;;5004987;28;20433;-80
2021/01/14 06:17:04;;;;;;;8.17;4.43;;;2.10;73.90;;;;;;4998765;28;20406;-81
2021/01/14 06:19:32;;;;;;;6.90;2.23;;;2.10;73.10;;;;;;4999165;28;20264;-79
2021/01/14 06:21:58;;;;;;;13.40;3.13;;;2.10;73.20;;;;;;5021843;28;20447;-79
2021/01/14 06:24:29;;;;;;;7.20;3.00;;;2.10;73.30;;;;;;5022057;28;20411;-80
2021/01/14 06:27:03;;;;;;;9.73;3.10;;;2.00;73.30;;;;;;5006180;28;20523;-80
2021/01/14 06:29:29;;;;;;;12.30;2.97;;;2.00;73.50;;;;;;4999708;28;20488;-80
2021/01/14 06:32:17;;;;;;;6.63;3.83;;;2.00;73.60;;;;;;5000438;28;20928;-80
2021/01/14 06:34:50;;;;;;;5.93;2.63;;;2.00;73.60;;;;;;4999739;28;20190;-80
2021/01/14 06:37:19;;;;;;;7.33;3.30;;;2.00;73.70;;;;;;4997277;28;20494;-80
2021/01/14 06:40:01;;;;;;;18.30;3.77;;;2.00;73.70;;;;;;5000297;28;20469;-80
2021/01/14 06:42:29;;;;;;;18.77;5.60;;;2.00;73.70;;;;;;4989723;28;20461;-79
2021/01/14 06:44:59;;;;;;;9.53;4.30;;;2.10;73.80;;;;;;4987082;28;20410;-79
2021/01/14 06:47:31;;;;;;;6.30;2.67;;;2.10;73.60;;;;;;5020950;28;20996;-79
2021/01/14 06:50:12;;;;;;;14.47;3.70;;;2.10;73.30;;;;;;4994297;28;20482;-81
2021/01/14 06:52:46;;;;;;;12.40;4.20;;;2.10;73.30;;;;;;4999396;28;20427;-78
2021/01/14 06:55:17;;;;;;;11.23;3.77;;;2.10;73.30;;;;;;5000997;28;20463;-77
2021/01/14 06:58:01;;;;;;;5.17;2.70;;;2.20;73.30;;;;;;5015855;28;20462;-77
2021/01/14 07:00:29;;;;;;;18.73;4.60;;;2.20;73.20;;;;;;4998278;28;20449;-77
2021/01/14 07:03:15;;;;;;;9.57;2.90;;;2.20;73.20;;;;;;5012353;28;20450;-77
2021/01/14 07:06:03;;;;;;;5.00;2.10;;;2.20;73.10;;;;;;5010229;28;21071;-77
2021/01/14 07:08:42;;;;;;;6.90;3.47;;;2.20;73.00;;;;;;4995572;28;20415;-77
2021/01/14 07:11:21;;;;;;;9.80;3.53;;;2.20;73.10;;;;;;4991582;28;20553;-77
2021/01/14 07:13:54;;;;;;;17.30;4.03;;;2.20;73.00;;;;;;4966491;28;20428;-77
2021/01/14 07:16:24;;;;;;;7.17;4.27;;;2.20;73.10;;;;;;4996257;28;20429;-77
2021/01/14 07:18:51;;;;;;;18.83;4.77;;;2.20;73.10;;;;;;4991259;28;20473;-76
2021/01/14 07:21:36;;;;;;;16.53;4.13;;;2.20;73.00;;;;;;4993572;28;20435;-76
2021/01/14 07:24:21;;;;;;;13.80;5.93;;;2.20;73.00;;;;;;4994644;28;20429;-76
2021/01/14 07:26:51;;;;;;;13.53;3.47;;;2.20;73.10;;;;;;4995458;28;20433;-76
2021/01/14 07:29:17;;;;;;;18.57;4.90;;;2.20;73.00;;;;;;4994229;28;20439;-77
2021/01/14 07:31:47;;;;;;;42.00;15.20;;;2.20;73.10;;;;;;4993358;28;20419;-77
2021/01/14 07:34:33;;;;;;;33.57;12.60;;;2.20;73.20;;;;;;4991254;28;20986;-77
2021/01/14 07:36:59;;;;;;;32.83;10.03;;;2.30;73.30;;;;;;4992972;28;21087;-77
2021/01/14 07:39:57;;;;;;;24.33;7.37;;;2.30;73.30;;;;;;4996330;28;20415;-80
2021/01/14 07:42:22;;;;;;;28.63;11.03;;;2.30;73.20;;;;;;5002564;28;20206;-78
2021/01/14 07:44:53;;;;;;;39.23;11.37;;;2.30;73.30;;;;;;5021943;28;20492;-79
2021/01/14 07:47:30;;;;;;;39.47;12.80;;;2.30;73.20;;;;;;5002127;28;20171;-77
2021/01/14 07:49:57;;;;;;;20.70;7.40;;;2.30;73.00;;;;;;5011324;28;20497;-78
2021/01/14 07:52:34;;;;;;;19.23;9.33;;;2.30;73.00;;;;;;5000143;28;20457;-77
2021/01/14 07:55:07;;;;;;;26.47;6.97;;;2.30;72.90;;;;;;5001328;28;20406;-79
2021/01/14 07:58:19;;;;;;;15.03;5.60;;;2.30;73.00;;;;;;4996089;28;20426;-81
2021/01/14 08:01:08;;;;;;;12.93;6.73;;;2.30;73.20;;;;;;4976840;28;20493;-76
2021/01/14 08:03:37;;;;;;;10.27;4.57;;;2.40;73.30;;;;;;4997937;28;20473;-77
2021/01/14 08:06:29;;;;;;;13.60;4.30;;;2.40;73.20;;;;;;5013554;28;20516;-80
2021/01/14 08:09:06;;;;;;;3.70;2.77;;;2.40;73.10;;;;;;4996260;28;20453;-79
2021/01/14 08:11:33;;;;;;;4.30;2.37;;;2.40;72.90;;;;;;5014679;28;20423;-80
2021/01/14 08:14:04;;;;;;;10.00;4.33;;;2.50;72.90;;;;;;4996590;28;20494;-79
2021/01/14 08:16:32;;;;;;;10.33;4.10;;;2.50;73.00;;;;;;4990914;28;20758;-78
2021/01/14 08:19:28;;;;;;;7.40;4.13;;;2.50;73.20;;;;;;4995654;28;20827;-78
2021/01/14 08:22:02;;;;;;;9.13;3.87;;;2.60;73.20;;;;;;4991004;28;20459;-77
2021/01/14 08:24:51;;;;;;;9.40;4.20;;;2.60;72.90;;;;;;4996005;28;20410;-79
2021/01/14 08:27:26;;;;;;;22.97;8.57;;;2.60;72.90;;;;;;4997409;28;20433;-78
2021/01/14 08:29:58;;;;;;;13.17;4.47;;;2.60;72.80;;;;;;4996682;28;20513;-80
2021/01/14 08:32:29;;;;;;;11.33;3.30;;;2.60;72.60;;;;;;5000948;28;20910;-79
2021/01/14 08:34:56;;;;;;;8.30;2.93;;;2.60;72.60;;;;;;4999718;28;20415;-81
2021/01/14 08:37:47;;;;;;;6.70;2.50;;;2.70;72.50;;;;;;4998598;28;20423;-80
2021/01/14 08:40:17;;;;;;;11.47;3.27;;;2.70;72.00;;;;;;4998879;28;20818;-79
2021/01/14 08:42:47;;;;;;;8.90;3.23;;;2.70;71.50;;;;;;5015914;28;20492;-79
2021/01/14 08:45:21;;;;;;;5.50;2.13;;;2.80;71.10;;;;;;4995988;28;20417;-78
2021/01/14 08:48:00;;;;;;;8.03;1.90;;;2.80;70.50;;;;;;5003737;28;20418;-77
2021/01/14 08:50:42;;;;;;;4.23;2.43;;;2.90;69.90;;;;;;5001282;28;20494;-79
2021/01/14 08:53:21;;;;;;;6.73;1.97;;;2.90;69.40;;;;;;4999992;28;20910;-78
2021/01/14 08:55:51;;;;;;;3.80;2.07;;;3.00;68.90;;;;;;5002549;28;20422;-80
2021/01/14 08:58:19;;;;;;;6.17;1.90;;;3.10;68.40;;;;;;5007115;28;20442;-80
2021/01/14 09:00:47;;;;;;;10.23;2.20;;;3.10;67.60;;;;;;5019541;28;20504;-79
2021/01/14 09:03:13;;;;;;;5.70;2.37;;;3.10;66.90;;;;;;5003392;28;20458;-80
2021/01/14 09:05:46;;;;;;;11.63;2.80;;;3.10;66.40;;;;;;5026780;28;20426;-82
2021/01/14 09:08:19;;;;;;;5.47;1.90;;;3.10;66.00;;;;;;5021394;28;20423;-79
2021/01/14 09:10:49;;;;;;;11.07;2.30;;;3.10;65.60;;;;;;5007975;28;20951;-80
2021/01/14 09:13:17;;;;;;;6.90;3.07;;;3.10;65.30;;;;;;5024579;28;20427;-80
2021/01/14 09:15:43;;;;;;;3.50;2.13;;;3.20;65.00;;;;;;5008275;28;20799;-80
2021/01/14 09:18:10;;;;;;;7.77;2.33;;;3.20;63.90;;;;;;5009200;28;20421;-79
2021/01/14 09:20:36;;;;;;;3.83;1.63;;;3.20;63.60;;;;;;5004656;28;20461;-80
2021/01/14 09:23:21;;;;;;;6.47;1.77;;;3.20;63.40;;;;;;5009140;28;20470;-79
2021/01/14 09:25:49;;;;;;;3.00;2.20;;;3.20;63.20;;;;;;5008610;28;20438;-81
2021/01/14 09:28:15;;;;;;;8.13;1.80;;;3.20;63.20;;;;;;5000555;28;20423;-79
2021/01/14 09:30:42;;;;;;;6.40;1.73;;;3.20;63.10;;;;;;5000546;28;20514;-79
2021/01/14 09:33:08;;;;;;;2.87;2.07;;;3.30;62.90;;;;;;5000480;28;20442;-82
2021/01/14 09:35:34;;;;;;;6.73;2.63;;;3.30;62.90;;;;;;5002750;28;20458;-79
2021/01/14 09:38:00;;;;;;;5.30;2.30;;;3.30;63.10;;;;;;5006377;28;20440;-82
2021/01/14 09:40:26;;;;;;;8.80;2.97;;;3.30;62.50;;;;;;5021339;28;20434;-81
2021/01/14 09:42:52;;;;;;;4.13;1.90;;;3.30;62.60;;;;;;5036397;28;20179;-81
2021/01/14 09:45:19;;;;;;;8.37;2.80;;;3.30;63.00;;;;;;5019192;28;20185;-79
2021/01/14 09:47:48;;;;;;;9.40;3.37;;;3.30;62.90;;;;;;5010614;28;20460;-78
2021/01/14 09:50:15;;;;;;;5.67;2.90;;;3.40;62.70;;;;;;5016875;28;20438;-79
2021/01/14 09:52:40;;;;;;;7.00;2.30;;;3.30;62.40;;;;;;5004230;28;20960;-80
2021/01/14 09:55:09;;;;;;;10.83;2.80;;;3.40;63.00;;;;;;5006253;28;20511;-80
2021/01/14 09:57:40;;;;;;;9.10;2.53;;;3.40;62.70;;;;;;5004828;28;20487;-79
2021/01/14 10:00:07;;;;;;;4.60;2.87;;;3.40;62.70;;;;;;5004321;28;20447;-80
2021/01/14 10:02:35;;;;;;;3.97;2.40;;;3.40;62.60;;;;;;5016422;28;20456;-80
2021/01/14 10:05:11;;;;;;;7.63;5.17;;;3.40;62.90;;;;;;5001012;28;20426;-81
2021/01/14 10:07:39;;;;;;;11.70;4.73;;;3.40;62.60;;;;;;5003835;28;20816;-79
2021/01/14 10:10:07;;;;;;;7.37;2.30;;;3.50;62.70;;;;;;5003509;28;20465;-80
2021/01/14 10:12:33;;;;;;;8.10;5.13;;;3.50;63.00;;;;;;5036563;28;20415;-79
2021/01/14 10:15:14;;;;;;;6.20;3.30;;;3.50;62.20;;;;;;5004263;28;20426;-79
2021/01/14 10:17:41;;;;;;;5.17;2.00;;;3.50;62.60;;;;;;5000712;28;20191;-79
2021/01/14 10:20:12;;;;;;;3.90;2.17;;;3.50;61.90;;;;;;5001593;28;20895;-80
2021/01/14 10:23:04;;;;;;;3.60;1.87;;;3.40;61.50;;;;;;5000038;28;20798;-79
2021/01/14 10:25:30;;;;;;;6.13;2.50;;;3.30;61.80;;;;;;5000583;28;20415;-80
2021/01/14 10:27:59;;;;;;;6.93;3.47;;;3.30;62.40;;;;;;5001660;28;21011;-80
2021/01/14 10:30:26;;;;;;;10.40;3.03;;;3.30;62.60;;;;;;5004507;28;20207;-80
2021/01/14 10:33:00;;;;;;;6.30;2.83;;;3.30;62.60;;;;;;5003916;28;20444;-81
2021/01/14 10:35:28;;;;;;;9.83;2.63;;;3.30;62.20;;;;;;5005090;28;20410;-79
2021/01/14 10:38:07;;;;;;;4.23;2.63;;;3.40;62.60;;;;;;5004257;28;20426;-80
2021/01/14 10:40:40;;;;;;;5.60;2.60;;;3.40;62.60;;;;;;5006360;28;20528;-80
2021/01/14 10:43:08;;;;;;;5.20;2.97;;;3.40;63.20;;;;;;5037653;28;20476;-81
2021/01/14 10:45:39;;;;;;;8.63;3.07;;;3.40;63.40;;;;;;5021315;28;20486;-80
2021/01/14 10:48:09;;;;;;;5.10;3.03;;;3.40;62.90;;;;;;5000264;28;20485;-79
2021/01/14 10:50:41;;;;;;;7.30;2.60;;;3.40;62.50;;;;;;4998953;28;20455;-78
2021/01/14 10:53:07;;;;;;;6.10;3.03;;;3.40;61.90;;;;;;5004426;28;20509;-78
2021/01/14 10:55:34;;;;;;;8.33;2.97;;;3.50;61.80;;;;;;5006159;28;20464;-79
2021/01/14 10:58:02;;;;;;;5.07;2.43;;;3.60;61.00;;;;;;4997633;28;20191;-79
2021/01/14 11:00:34;;;;;;;4.17;2.73;;;3.60;60.50;;;;;;5004016;28;20944;-79
2021/01/14 11:03:02;;;;;;;9.33;2.63;;;3.60;59.60;;;;;;5001369;28;20557;-80
2021/01/14 11:05:48;;;;;;;4.10;2.67;;;3.60;59.40;;;;;;5009925;28;20421;-78
2021/01/14 11:08:22;;;;;;;8.10;3.00;;;3.60;59.50;;;;;;4985304;28;20418;-79
2021/01/14 11:11:07;;;;;;;6.80;3.17;;;3.60;59.30;;;;;;5001274;28;20477;-79
2021/01/14 11:13:46;;;;;;;3.53;2.77;;;3.60;59.40;;;;;;5020307;28;20433;-80
2021/01/14 11:16:14;;;;;;;4.83;2.53;;;3.60;59.10;;;;;;5004437;28;20454;-79
2021/01/14 11:18:42;;;;;;;11.00;3.10;;;3.60;59.50;;;;;;5005110;28;20410;-79
2021/01/14 11:21:08;;;;;;;3.30;2.13;;;3.60;59.10;;;;;;5005581;28;20421;-78
2021/01/14 11:23:34;;;;;;;4.17;1.80;;;3.70;59.50;;;;;;5003829;28;20455;-78
2021/01/14 11:26:02;;;;;;;7.13;2.43;;;3.80;59.50;;;;;;5002895;28;20419;-79
2021/01/14 11:28:29;;;;;;;5.60;2.10;;;3.90;58.90;;;;;;5030101;28;20417;-79
2021/01/14 11:30:55;;;;;;;5.10;2.20;;;3.90;57.90;;;;;;5022504;28;20437;-80
2021/01/14 11:33:20;;;;;;;6.67;2.63;;;3.90;58.20;;;;;;5002123;28;20418;-79
2021/01/14 11:35:46;;;;;;;7.80;2.40;;;3.90;58.30;;;;;;5010606;28;20206;-78
2021/01/14 11:38:12;;;;;;;4.60;2.00;;;4.00;58.70;;;;;;5021327;28;20175;-79
2021/01/14 11:40:37;;;;;;;6.83;2.30;;;4.10;58.40;;;;;;5006038;28;20192;-79
2021/01/14 11:43:03;;;;;;;4.93;2.77;;;4.10;58.30;;;;;;5017054;28;20200;-79
2021/01/14 11:45:29;;;;;;;6.47;2.47;;;4.10;58.90;;;;;;5003401;28;20159;-79
2021/01/14 11:47:54;;;;;;;3.17;1.80;;;4.20;58.20;;;;;;5023229;28;20148;-79
2021/01/14 11:50:20;;;;;;;3.60;2.20;;;4.20;58.40;;;;;;5005895;28;20192;-79
2021/01/14 11:52:46;;;;;;;16.40;7.23;;;4.20;58.30;;;;;;5001818;28;20433;-79
2021/01/14 11:55:12;;;;;;;11.17;2.50;;;4.30;57.80;;;;;;5017450;28;20164;-79
2021/01/14 11:57:37;;;;;;;10.70;2.40;;;4.30;57.50;;;;;;5001893;28;20261;-79
2021/01/14 12:00:08;;;;;;;5.57;3.13;;;4.20;57.60;;;;;;5002715;28;20779;-79
2021/01/14 12:02:37;;;;;;;6.60;2.03;;;4.30;57.80;;;;;;5020314;28;20522;-79
2021/01/14 12:05:05;;;;;;;8.03;2.50;;;4.30;57.90;;;;;;5033916;28;20516;-79
2021/01/14 12:07:30;;;;;;;7.97;4.27;;;4.20;57.70;;;;;;5003206;28;20240;-78
2021/01/14 12:09:56;;;;;;;6.13;2.20;;;4.20;57.70;;;;;;5019479;28;20426;-79
2021/01/14 12:12:22;;;;;;;5.80;2.40;;;4.20;58.00;;;;;;5020566;28;20167;-79
2021/01/14 12:14:48;;;;;;;7.23;2.40;;;4.20;57.70;;;;;;5018428;28;20430;-79
2021/01/14 12:17:14;;;;;;;6.43;1.97;;;4.10;57.40;;;;;;5019431;28;20414;-78
2021/01/14 12:19:40;;;;;;;2.90;1.50;;;3.90;57.90;;;;;;5019103;28;20199;-79
2021/01/14 12:22:06;;;;;;;4.30;2.20;;;3.80;58.50;;;;;;5019747;28;20458;-78
2021/01/14 12:24:32;;;;;;;5.63;2.03;;;3.80;58.70;;;;;;4994939;28;20517;-78
2021/01/14 12:26:58;;;;;;;3.90;1.97;;;3.90;58.80;;;;;;4998690;28;20490;-79
2021/01/14 12:29:24;;;;;;;5.40;2.10;;;4.00;59.00;;;;;;4999513;28;20180;-79
2021/01/14 12:31:51;;;;;;;5.90;2.30;;;4.00;58.60;;;;;;4999892;28;20473;-79
2021/01/14 12:34:17;;;;;;;18.10;2.73;;;4.00;59.10;;;;;;4999191;28;20824;-79
2021/01/14 12:36:42;;;;;;;5.27;3.37;;;4.10;59.10;;;;;;5015580;28;20426;-79
2021/01/14 12:39:08;;;;;;;3.97;2.30;;;4.10;58.90;;;;;;4999405;28;20435;-78
2021/01/14 12:41:36;;;;;;;5.63;2.87;;;4.10;58.70;;;;;;5013245;28;20179;-78
2021/01/14 12:44:03;;;;;;;7.73;2.80;;;4.20;59.00;;;;;;4997984;28;20596;-79
2021/01/14 12:46:37;;;;;;;8.80;2.77;;;4.30;59.00;;;;;;4998887;28;20414;-78
2021/01/14 12:49:05;;;;;;;7.10;2.87;;;4.30;58.90;;;;;;4997744;28;20446;-79
2021/01/14 12:51:31;;;;;;;3.40;2.13;;;4.30;58.80;;;;;;5012155;28;20862;-78
2021/01/14 12:53:57;;;;;;;4.63;2.80;;;4.40;59.10;;;;;;5015661;28;20452;-78
2021/01/14 12:56:23;;;;;;;7.47;3.10;;;4.40;59.20;;;;;;4998890;28;20442;-79
2021/01/14 12:58:49;;;;;;;3.83;2.80;;;4.40;58.60;;;;;;4997196;28;20438;-78
2021/01/14 13:01:14;;;;;;;16.27;3.10;;;4.40;58.20;;;;;;5030617;28;20972;-79
2021/01/14 13:03:40;;;;;;;3.47;2.33;;;4.40;59.20;;;;;;5019391;28;20206;-78
2021/01/14 13:06:06;;;;;;;8.37;2.77;;;4.40;58.60;;;;;;5019140;28;20217;-79